Flight Track Log - Related Links

Times and Time Zones

All times are in EDT time to prevent confusion due to time zone crossing. See the RPA3392 flight status page for this flight to view local times or setup timezone preferences in your user account.

Time Position Orientation Groundspeed Altitude Reporting Facility
EDT Latitude Longitude Course Direction KTS MPH feet Rate Location/Type
Mon 10:56:18 PM 38.8000 -77.0333 83° East 192 221 2,600  Level Potomac TRACON
Mon 10:57:00 PM 38.9782 -76.6602 57° Northeast  Level FlightAware Approximate
Mon 10:58:00 PM 39.0271 -76.5355 67° East  Level FlightAware Approximate
Mon 10:58:40 PM 38.8583 -76.8978 61° Northeast 175 201 9,200  Level Washington Center
Mon 10:59:00 PM 39.0764 -76.4106 61° Northeast  Level FlightAware Approximate
Mon 10:59:40 PM 38.9278 -76.8297 37° Northeast 232 267 11,800  Level Washington Center
Mon 11:00:00 PM 39.1167 -76.2837 90° East  Level FlightAware Approximate
Mon 11:00:53 PM 38.9792 -76.6917 64° Northeast 311 358 15,200  Level Washington Center
Mon 11:01:00 PM 39.1556 -76.1607 83° East  Level FlightAware Approximate
Mon 11:01:53 PM 39.0178 -76.5694 68° East 338 389 17,700  Level Washington Center
Mon 11:02:51 PM 39.0522 -76.4308 72° East 373 429 18,900 1,700 Climbing Washington Center
Mon 11:03:53 PM 39.0864 -76.2814 74° East 400 460 21,100 2,000 Climbing Washington Center
Mon 11:04:51 PM 39.1267 -76.1347 70° East 426 490 22,900 958 Climbing Washington Center
Mon 11:05:52 PM 39.1669 -75.9825 71° East 439 505 23,000 295 Climbing Washington Center
Mon 11:06:53 PM 39.2217 -75.8433 63° Northeast 439 505 23,500 1,210 Climbing Washington Center
Mon 11:07:51 PM 39.3072 -75.7311 45° Northeast 427 491 25,400 1,576 Climbing Washington Center
Mon 11:08:51 PM 39.3969 -75.6211 43° Northeast 427 491 26,600 1,240 Climbing Washington Center
Mon 11:09:52 PM 39.4844 -75.5028 46° Northeast 440 506 27,900 1,294 Climbing Washington Center
Mon 11:12:15 PM 39.7003 -75.2175 45° Northeast 459 528 31,000 1,353 Climbing New York Center
Mon 11:13:16 PM 39.7931 -75.0800 49° Northeast 464 534 32,500 1,279 Climbing New York Center
Mon 11:14:17 PM 39.8786 -74.9608 47° Northeast 459 528 33,600 1,131 Climbing New York Center
Mon 11:15:18 PM 39.9642 -74.8361 48° Northeast 459 528 34,800 1,068 Climbing New York Center
Mon 11:16:15 PM 40.0494 -74.7244 45° Northeast 452 520 35,700 821 Climbing New York Center
Mon 11:17:15 PM 40.1319 -74.6261 42° Northeast 441 507 36,400 545 Climbing New York Center
Mon 11:18:16 PM 40.2378 -74.5069 41° Northeast 446 513 36,800 -787 Climbing New York Center
Mon 11:19:17 PM 40.3350 -74.3950 41° Northeast 451 519 34,800 -2,218 Descending New York Center
Mon 11:20:15 PM 40.4281 -74.2828 43° Northeast 451 519 32,400 -2,388 Descending New York Center
Mon 11:22:43 PM 40.6658 -74.0133 41° Northeast 466 536 26,600 -2,308 Descending Boston Center
Mon 11:23:43 PM 40.7547 -73.9086 42° Northeast 454 522 24,400 -1,300 Descending Boston Center
Mon 11:24:43 PM 40.8417 -73.8036 42° Northeast 428 493 24,000 -500 Descending Boston Center
Mon 11:25:43 PM 40.9303 -73.6956 43° Northeast 428 493 23,400 -500 Descending Boston Center
Mon 11:26:43 PM 41.0211 -73.5928 40° Northeast 423 487 23,000 -200 Descending Boston Center
Mon 11:27:43 PM 41.1319 -73.5672 10° North 397 457 23,000  Level Boston Center
Mon 11:28:43 PM 41.2464 -73.5831 354° North 401 461 23,000 -500 Level Boston Center
Mon 11:29:43 PM 41.3628 -73.6017 353° North 406 467 22,000 -1,200 Descending Boston Center
Mon 11:30:43 PM 41.4772 -73.6147 355° North 406 467 20,600 -1,200 Descending Boston Center
Mon 11:31:43 PM 41.5833 -73.6336 352° North 396 456 19,600 -1,100 Descending Boston Center
Mon 11:32:43 PM 41.6894 -73.6467 355° North 391 450 18,400 -1,050 Descending Boston Center
Mon 11:33:43 PM 41.7956 -73.6653 353° North 386 444 17,500 -1,050 Descending Boston Center
Mon 11:34:43 PM 41.9017 -73.6786 355° North 386 444 16,300 -1,200 Descending Boston Center
Mon 11:35:23 PM 41.9725 -73.6939 351° North 375 432 15,500 -1,274 Descending Boston Center
Mon 11:36:36 PM 42.0953 -73.7103 354° North 364 419 13,900 -1,209 Descending Boston Center
Mon 11:37:37 PM 42.1911 -73.7236 354° North 344 396 12,800 -1,140 Descending Boston Center
Mon 11:38:37 PM 42.2844 -73.7422 352° North 336 387 11,600 -1,587 Descending Boston Center
Mon 11:39:38 PM 42.3678 -73.7581 352° North 291 335 9,600 -2,529 Descending Boston Center
Mon 11:40:38 PM 42.4425 -73.7736 351° North 269 310 6,500 -3,074 Descending Boston Center
Mon 11:41:39 PM 42.5194 -73.7894 351° North 262 302 3,400 -1,721 Descending Boston Center
Mon 11:42:40 PM 42.5861 -73.7994 354° North 229 264 3,000 -595 Descending Boston Center
Mon 11:43:40 PM 42.6381 -73.8003 359° North 177 204 2,200 -800 Descending Boston Center

Login

Don't have an account? Register now (free) for customized features, flight alerts, and more!